RJNO(METAR)
02/18 15:00
RJNO 180600Z 19008KT 9999 FEW030 BKNXXX 09/02 Q1024 RMK A3024=
戻る
トップページへ戻る
IMOC Co,.Ltd.